Terminal Aerodrome Forecast
Issued by NWS

Home | Current Version | Previous Version | Text Only | Print | Product List | Glossary On
Versions: 1 2 3 4 5 6 7 8 9 10 11 12 13 14 15
000
FTAK31 PAJN 290500
TAFAWG
TAF
PAWG 290530Z 2906/3006 12006KT 6SM -RA BR SCT005 BKN040 OVC060
     FM290900 VRB03KT P6SM -RA SCT020 OVC040
     FM291500 00000KT 5SM -RA BR BKN015 OVC030
     FM291800 14005KT 6SM -RA BR SCT010 SCT015 OVC030
     FM292100 14006KT P6SM -RA SCT025 OVC050
     FM300300 VRB03KT P6SM -RA OVC050
      AMD LTD TO CLD VIS AND WIND 2906/2915=

USA.gov is the U.S. government's official web portal to all federal, state and local government web resources and services.